РПИ Самарканд

Руководство

Evgeny Vygornitsky*

Куратор

Vitaliy Alekseyev

Помощник куратора по Узбекистану
Инструкторы РПИ
Evgeny Vygornitsky (Supervisor)
Входит в состав
Центральная Азия

Диспетчеры РПИ

Диспетчер Рейтинг Допуски *
Vitaliy Alekseyev Controller UTSD_CTR

Аэропорты РПИ

ICAO Город Название Погода
UTSB Бухара Бухара UTSB 190630Z 36016KT 9999 FEW033 37/12 Q1007 R01/CLRD70 NOSIG
UTSS Самарканд Самарканд UTSS 190630Z 05014KT 010V090 9999 NSC 33/10 Q1008 R09/CLRD70 NOSIG
UTST Термез Термез UTST 190630Z 20004KT 140V240 CAVOK 34/10 Q1004 R25/CLRD70 NOSIG
UTSK Карши Карши-Ханабад UTSK 190630Z 02014KT CAVOK 36/10 Q1005 R34/CLRD70
UTSA Навои Навои UTSA 190630Z 02014KT 9999 NSC 37/08 Q1007 R07/CLRD70 NOSIG